Terminal Aerodrome Forecast
Issued by NWS

Home | Current Version | Previous Version | Text Only | Print | Product List | Glossary On
Versions: 1 2 3 4 5 6 7 8 9 10 11 12 13 14 15
000
FTUS44 KEPZ 031100 RRA
TAFLRU
TAF
KLRU 031159Z 0312/0412 28008KT P6SM BKN040 OVC250
      TEMPO 0312/0315 P6SM -SHRA BKN040
     FM031500 20008KT P6SM VCSH SCT030 BKN060
      TEMPO 0315/0318 P6SM -SHRA BKN040
     FM031800 23006KT P6SM VCSH SCT030 BKN050
      TEMPO 0318/0321 P6SM -SHRA BKN040
     FM032100 23012KT P6SM VCSH SCT030 BKN050
     FM040000 24012KT P6SM FEW030 SCT060=

USA.gov is the U.S. government's official web portal to all federal, state and local government web resources and services.